sensor_id;sensor_type;location;lat;lon;timestamp;temperature;humidity
314;DHT22;143;51.634;7.112;2022-10-29T00:01:00;19.10;1.00
314;DHT22;143;51.634;7.112;2022-10-29T00:03:26;19.10;1.00
314;DHT22;143;51.634;7.112;2022-10-29T00:06:10;19.10;1.00
314;DHT22;143;51.634;7.112;2022-10-29T00:08:37;19.00;1.00
314;DHT22;143;51.634;7.112;2022-10-29T00:11:08;19.00;1.00
314;DHT22;143;51.634;7.112;2022-10-29T00:13:35;19.00;1.00
314;DHT22;143;51.634;7.112;2022-10-29T00:16:09;19.00;1.00
314;DHT22;143;51.634;7.112;2022-10-29T00:18:36;18.90;1.00
314;DHT22;143;51.634;7.112;2022-10-29T00:21:03;18.90;1.00
314;DHT22;143;51.634;7.112;2022-10-29T00:23:30;18.90;1.00
314;DHT22;143;51.634;7.112;2022-10-29T00:26:00;18.90;1.00
314;DHT22;143;51.634;7.112;2022-10-29T00:28:26;18.90;1.00
314;DHT22;143;51.634;7.112;2022-10-29T00:30:52;18.80;1.00
314;DHT22;143;51.634;7.112;2022-10-29T00:33:18;18.80;1.00
314;DHT22;143;51.634;7.112;2022-10-29T00:36:00;18.80;1.00
314;DHT22;143;51.634;7.112;2022-10-29T00:38:27;18.80;1.00
314;DHT22;143;51.634;7.112;2022-10-29T00:40:53;18.70;1.00
314;DHT22;143;51.634;7.112;2022-10-29T00:43:21;18.80;1.00
314;DHT22;143;51.634;7.112;2022-10-29T00:45:59;18.70;1.00
314;DHT22;143;51.634;7.112;2022-10-29T00:48:28;18.70;1.00
314;DHT22;143;51.634;7.112;2022-10-29T00:50:55;18.70;1.00
314;DHT22;143;51.634;7.112;2022-10-29T00:53:25;18.70;1.00
314;DHT22;143;51.634;7.112;2022-10-29T00:55:51;18.60;1.00
314;DHT22;143;51.634;7.112;2022-10-29T00:58:18;18.60;1.00
314;DHT22;143;51.634;7.112;2022-10-29T01:00:44;18.60;1.00
314;DHT22;143;51.634;7.112;2022-10-29T01:03:10;18.60;1.00
314;DHT22;143;51.634;7.112;2022-10-29T01:05:36;18.60;1.00
314;DHT22;143;51.634;7.112;2022-10-29T01:08:02;18.60;1.00
314;DHT22;143;51.634;7.112;2022-10-29T01:10:53;18.50;1.00
314;DHT22;143;51.634;7.112;2022-10-29T01:16:08;18.50;1.00
314;DHT22;143;51.634;7.112;2022-10-29T01:19:00;18.40;1.00
314;DHT22;143;51.634;7.112;2022-10-29T01:21:51;18.40;1.00
314;DHT22;143;51.634;7.112;2022-10-29T01:30:16;18.20;1.00
314;DHT22;143;51.634;7.112;2022-10-29T01:35:46;18.10;1.00
314;DHT22;143;51.634;7.112;2022-10-29T01:38:34;18.10;1.00
314;DHT22;143;51.634;7.112;2022-10-29T01:46:42;17.90;1.00
314;DHT22;143;51.634;7.112;2022-10-29T01:49:16;17.90;1.00
314;DHT22;143;51.634;7.112;2022-10-29T01:51:43;17.90;1.00
314;DHT22;143;51.634;7.112;2022-10-29T01:54:11;17.80;1.00
314;DHT22;143;51.634;7.112;2022-10-29T01:56:37;17.80;1.00
314;DHT22;143;51.634;7.112;2022-10-29T01:59:07;17.80;1.00
314;DHT22;143;51.634;7.112;2022-10-29T02:12:52;17.70;1.00
314;DHT22;143;51.634;7.112;2022-10-29T02:18:01;17.70;1.00
314;DHT22;143;51.634;7.112;2022-10-29T02:20:28;17.70;1.00
314;DHT22;143;51.634;7.112;2022-10-29T02:22:54;17.70;1.00
314;DHT22;143;51.634;7.112;2022-10-29T02:25:20;17.60;1.00
314;DHT22;143;51.634;7.112;2022-10-29T02:27:46;17.60;1.00
314;DHT22;143;51.634;7.112;2022-10-29T02:30:11;17.60;1.00
314;DHT22;143;51.634;7.112;2022-10-29T02:32:37;17.50;1.00
314;DHT22;143;51.634;7.112;2022-10-29T02:35:03;17.50;1.00
314;DHT22;143;51.634;7.112;2022-10-29T02:37:29;17.50;1.00
314;DHT22;143;51.634;7.112;2022-10-29T02:39:55;17.40;1.00
314;DHT22;143;51.634;7.112;2022-10-29T02:42:21;17.30;1.00
314;DHT22;143;51.634;7.112;2022-10-29T02:44:46;17.30;1.00
314;DHT22;143;51.634;7.112;2022-10-29T02:47:12;17.30;1.00
314;DHT22;143;51.634;7.112;2022-10-29T02:49:38;17.20;1.00
314;DHT22;143;51.634;7.112;2022-10-29T02:52:03;17.20;1.00
314;DHT22;143;51.634;7.112;2022-10-29T02:54:30;17.10;1.00
314;DHT22;143;51.634;7.112;2022-10-29T02:56:55;17.10;1.00
314;DHT22;143;51.634;7.112;2022-10-29T02:59:21;17.00;1.00
314;DHT22;143;51.634;7.112;2022-10-29T03:01:47;17.00;1.00
314;DHT22;143;51.634;7.112;2022-10-29T03:04:13;16.90;1.00
314;DHT22;143;51.634;7.112;2022-10-29T03:06:39;16.90;1.00
314;DHT22;143;51.634;7.112;2022-10-29T03:09:04;16.90;1.00
314;DHT22;143;51.634;7.112;2022-10-29T03:11:30;16.90;1.00
314;DHT22;143;51.634;7.112;2022-10-29T03:13:56;16.90;1.00
314;DHT22;143;51.634;7.112;2022-10-29T03:16:21;16.80;1.00
314;DHT22;143;51.634;7.112;2022-10-29T03:18:47;16.80;1.00
314;DHT22;143;51.634;7.112;2022-10-29T03:21:13;16.80;1.00
314;DHT22;143;51.634;7.112;2022-10-29T03:23:38;16.80;1.00
314;DHT22;143;51.634;7.112;2022-10-29T03:26:04;16.80;1.00
314;DHT22;143;51.634;7.112;2022-10-29T03:28:30;16.80;1.00
314;DHT22;143;51.634;7.112;2022-10-29T03:30:56;16.80;1.00
314;DHT22;143;51.634;7.112;2022-10-29T03:33:23;16.70;1.00
314;DHT22;143;51.634;7.112;2022-10-29T03:36:02;16.70;1.00
314;DHT22;143;51.634;7.112;2022-10-29T03:38:28;16.70;1.00
314;DHT22;143;51.634;7.112;2022-10-29T03:40:54;16.70;1.00
314;DHT22;143;51.634;7.112;2022-10-29T03:43:20;16.70;1.00
314;DHT22;143;51.634;7.112;2022-10-29T03:45:50;16.70;1.00
314;DHT22;143;51.634;7.112;2022-10-29T03:48:16;16.70;1.00
314;DHT22;143;51.634;7.112;2022-10-29T03:50:42;16.70;1.00
314;DHT22;143;51.634;7.112;2022-10-29T03:53:08;16.70;1.00
314;DHT22;143;51.634;7.112;2022-10-29T03:55:34;16.70;1.00
314;DHT22;143;51.634;7.112;2022-10-29T03:57:59;16.70;1.00
314;DHT22;143;51.634;7.112;2022-10-29T04:00:25;16.70;1.00
314;DHT22;143;51.634;7.112;2022-10-29T04:02:50;16.70;1.00
314;DHT22;143;51.634;7.112;2022-10-29T04:05:16;16.70;1.00
314;DHT22;143;51.634;7.112;2022-10-29T04:07:42;16.70;1.00
314;DHT22;143;51.634;7.112;2022-10-29T04:10:08;16.60;1.00
314;DHT22;143;51.634;7.112;2022-10-29T04:12:33;16.60;1.00
314;DHT22;143;51.634;7.112;2022-10-29T04:14:59;16.60;1.00
314;DHT22;143;51.634;7.112;2022-10-29T04:17:25;16.60;1.00
314;DHT22;143;51.634;7.112;2022-10-29T04:19:50;16.70;1.00
314;DHT22;143;51.634;7.112;2022-10-29T04:22:16;16.60;1.00
314;DHT22;143;51.634;7.112;2022-10-29T04:24:42;16.60;1.00
314;DHT22;143;51.634;7.112;2022-10-29T04:27:07;16.60;1.00
314;DHT22;143;51.634;7.112;2022-10-29T04:29:33;16.60;1.00
314;DHT22;143;51.634;7.112;2022-10-29T04:31:59;16.60;1.00
314;DHT22;143;51.634;7.112;2022-10-29T04:34:24;16.60;1.00
314;DHT22;143;51.634;7.112;2022-10-29T04:36:50;16.60;1.00
314;DHT22;143;51.634;7.112;2022-10-29T04:39:17;16.60;1.00
314;DHT22;143;51.634;7.112;2022-10-29T04:41:42;16.60;1.00
314;DHT22;143;51.634;7.112;2022-10-29T04:44:08;16.60;1.00
314;DHT22;143;51.634;7.112;2022-10-29T04:46:34;16.60;1.00
314;DHT22;143;51.634;7.112;2022-10-29T04:48:59;16.60;1.00
314;DHT22;143;51.634;7.112;2022-10-29T04:51:25;16.60;1.00
314;DHT22;143;51.634;7.112;2022-10-29T04:53:51;16.60;1.00
314;DHT22;143;51.634;7.112;2022-10-29T04:56:17;16.50;1.00
314;DHT22;143;51.634;7.112;2022-10-29T04:58:43;16.50;1.00
314;DHT22;143;51.634;7.112;2022-10-29T05:01:09;16.50;1.00
314;DHT22;143;51.634;7.112;2022-10-29T05:03:34;16.40;1.00
314;DHT22;143;51.634;7.112;2022-10-29T05:06:04;16.40;1.00
314;DHT22;143;51.634;7.112;2022-10-29T05:08:30;16.40;1.00
314;DHT22;143;51.634;7.112;2022-10-29T05:10:56;16.40;1.00
314;DHT22;143;51.634;7.112;2022-10-29T05:13:21;16.40;1.00
314;DHT22;143;51.634;7.112;2022-10-29T05:15:51;16.40;1.00
314;DHT22;143;51.634;7.112;2022-10-29T05:18:17;16.40;1.00
314;DHT22;143;51.634;7.112;2022-10-29T05:20:43;16.40;1.00
314;DHT22;143;51.634;7.112;2022-10-29T05:23:10;16.30;1.00
314;DHT22;143;51.634;7.112;2022-10-29T05:25:37;16.40;1.00
314;DHT22;143;51.634;7.112;2022-10-29T05:28:12;16.40;1.00
314;DHT22;143;51.634;7.112;2022-10-29T05:30:39;16.40;1.00
314;DHT22;143;51.634;7.112;2022-10-29T05:33:07;16.40;1.00
314;DHT22;143;51.634;7.112;2022-10-29T05:35:34;16.40;1.00
314;DHT22;143;51.634;7.112;2022-10-29T05:37:59;16.40;1.00
314;DHT22;143;51.634;7.112;2022-10-29T05:40:25;16.50;1.00
314;DHT22;143;51.634;7.112;2022-10-29T05:42:51;16.50;1.00
314;DHT22;143;51.634;7.112;2022-10-29T05:45:17;16.50;1.00
314;DHT22;143;51.634;7.112;2022-10-29T05:47:43;16.50;1.00
314;DHT22;143;51.634;7.112;2022-10-29T05:50:10;16.50;1.00
314;DHT22;143;51.634;7.112;2022-10-29T05:52:36;16.40;1.00
314;DHT22;143;51.634;7.112;2022-10-29T05:55:01;16.40;1.00
314;DHT22;143;51.634;7.112;2022-10-29T05:57:28;16.40;1.00
314;DHT22;143;51.634;7.112;2022-10-29T05:59:53;16.40;1.00
314;DHT22;143;51.634;7.112;2022-10-29T06:02:19;16.40;1.00
314;DHT22;143;51.634;7.112;2022-10-29T06:04:45;16.40;1.00
314;DHT22;143;51.634;7.112;2022-10-29T06:07:11;16.40;1.00
314;DHT22;143;51.634;7.112;2022-10-29T06:09:36;16.40;1.00
314;DHT22;143;51.634;7.112;2022-10-29T06:12:02;16.40;1.00
314;DHT22;143;51.634;7.112;2022-10-29T06:14:28;16.40;1.00
314;DHT22;143;51.634;7.112;2022-10-29T06:16:53;16.40;1.00
314;DHT22;143;51.634;7.112;2022-10-29T06:19:19;16.30;1.00
314;DHT22;143;51.634;7.112;2022-10-29T06:21:45;16.30;1.00
314;DHT22;143;51.634;7.112;2022-10-29T06:24:11;16.40;1.00
314;DHT22;143;51.634;7.112;2022-10-29T06:26:38;16.40;1.00
314;DHT22;143;51.634;7.112;2022-10-29T06:29:04;16.40;1.00
314;DHT22;143;51.634;7.112;2022-10-29T06:31:30;16.40;1.00
314;DHT22;143;51.634;7.112;2022-10-29T06:33:55;16.40;1.00
314;DHT22;143;51.634;7.112;2022-10-29T06:36:22;16.40;1.00
314;DHT22;143;51.634;7.112;2022-10-29T06:38:48;16.40;1.00
314;DHT22;143;51.634;7.112;2022-10-29T06:41:13;16.40;1.00
314;DHT22;143;51.634;7.112;2022-10-29T06:43:39;16.40;1.00
314;DHT22;143;51.634;7.112;2022-10-29T06:46:05;16.40;1.00
314;DHT22;143;51.634;7.112;2022-10-29T06:48:31;16.50;1.00
314;DHT22;143;51.634;7.112;2022-10-29T06:50:58;16.50;1.00
314;DHT22;143;51.634;7.112;2022-10-29T06:53:25;16.50;1.00
314;DHT22;143;51.634;7.112;2022-10-29T06:55:51;16.50;1.00
314;DHT22;143;51.634;7.112;2022-10-29T06:58:19;16.50;1.00
314;DHT22;143;51.634;7.112;2022-10-29T07:00:45;16.50;1.00
314;DHT22;143;51.634;7.112;2022-10-29T07:03:19;16.50;1.00
314;DHT22;143;51.634;7.112;2022-10-29T07:05:45;16.50;1.00
314;DHT22;143;51.634;7.112;2022-10-29T07:08:11;16.60;1.00
314;DHT22;143;51.634;7.112;2022-10-29T07:10:38;16.60;1.00
314;DHT22;143;51.634;7.112;2022-10-29T07:13:04;16.60;1.00
314;DHT22;143;51.634;7.112;2022-10-29T07:15:30;16.60;1.00
314;DHT22;143;51.634;7.112;2022-10-29T07:18:02;16.70;1.00
314;DHT22;143;51.634;7.112;2022-10-29T07:20:30;16.70;1.00
314;DHT22;143;51.634;7.112;2022-10-29T07:22:57;16.70;1.00
314;DHT22;143;51.634;7.112;2022-10-29T07:25:23;16.70;1.00
314;DHT22;143;51.634;7.112;2022-10-29T07:27:49;16.70;1.00
314;DHT22;143;51.634;7.112;2022-10-29T07:30:15;16.70;1.00
314;DHT22;143;51.634;7.112;2022-10-29T07:32:41;16.80;1.00
314;DHT22;143;51.634;7.112;2022-10-29T07:35:07;16.80;1.00
314;DHT22;143;51.634;7.112;2022-10-29T07:37:33;16.80;1.00
314;DHT22;143;51.634;7.112;2022-10-29T07:39:59;16.80;1.00
314;DHT22;143;51.634;7.112;2022-10-29T07:42:25;16.80;1.00
314;DHT22;143;51.634;7.112;2022-10-29T07:44:50;16.90;1.00
314;DHT22;143;51.634;7.112;2022-10-29T07:47:16;16.90;1.00
314;DHT22;143;51.634;7.112;2022-10-29T07:49:42;17.00;1.00
314;DHT22;143;51.634;7.112;2022-10-29T07:52:08;17.00;1.00
314;DHT22;143;51.634;7.112;2022-10-29T07:54:34;17.10;1.00
314;DHT22;143;51.634;7.112;2022-10-29T07:57:00;17.20;1.00
314;DHT22;143;51.634;7.112;2022-10-29T07:59:26;17.20;1.00
314;DHT22;143;51.634;7.112;2022-10-29T08:01:51;17.30;1.00
314;DHT22;143;51.634;7.112;2022-10-29T08:04:17;17.30;1.00
314;DHT22;143;51.634;7.112;2022-10-29T08:06:43;17.30;1.00
314;DHT22;143;51.634;7.112;2022-10-29T08:09:11;17.40;1.00
314;DHT22;143;51.634;7.112;2022-10-29T08:11:37;17.50;1.00
314;DHT22;143;51.634;7.112;2022-10-29T08:14:03;17.50;1.00
314;DHT22;143;51.634;7.112;2022-10-29T08:16:29;17.60;1.00
314;DHT22;143;51.634;7.112;2022-10-29T08:18:55;17.70;1.00
314;DHT22;143;51.634;7.112;2022-10-29T08:21:21;17.80;1.00
314;DHT22;143;51.634;7.112;2022-10-29T08:23:47;17.90;1.00
314;DHT22;143;51.634;7.112;2022-10-29T08:26:13;18.00;1.00
314;DHT22;143;51.634;7.112;2022-10-29T08:28:38;18.10;1.00
314;DHT22;143;51.634;7.112;2022-10-29T08:31:04;18.20;1.00
314;DHT22;143;51.634;7.112;2022-10-29T08:33:30;18.30;1.00
314;DHT22;143;51.634;7.112;2022-10-29T08:35:56;18.40;1.00
314;DHT22;143;51.634;7.112;2022-10-29T08:38:23;18.40;1.00
314;DHT22;143;51.634;7.112;2022-10-29T08:46:48;18.70;1.00
314;DHT22;143;51.634;7.112;2022-10-29T08:49:20;18.70;1.00
314;DHT22;143;51.634;7.112;2022-10-29T08:52:10;18.80;1.00
314;DHT22;143;51.634;7.112;2022-10-29T08:54:46;18.90;1.00
314;DHT22;143;51.634;7.112;2022-10-29T08:57:16;19.10;1.00
314;DHT22;143;51.634;7.112;2022-10-29T09:00:14;19.20;1.00
314;DHT22;143;51.634;7.112;2022-10-29T09:02:40;19.30;1.00
314;DHT22;143;51.634;7.112;2022-10-29T09:05:14;19.40;1.00
314;DHT22;143;51.634;7.112;2022-10-29T09:10:54;19.50;1.00
314;DHT22;143;51.634;7.112;2022-10-29T09:16:39;19.50;1.00
314;DHT22;143;51.634;7.112;2022-10-29T09:25:01;19.60;1.00
314;DHT22;143;51.634;7.112;2022-10-29T09:28:01;19.60;1.00
314;DHT22;143;51.634;7.112;2022-10-29T09:30:40;19.60;1.00
314;DHT22;143;51.634;7.112;2022-10-29T09:33:14;19.70;1.00
314;DHT22;143;51.634;7.112;2022-10-29T09:35:47;19.70;1.00
314;DHT22;143;51.634;7.112;2022-10-29T09:40:47;19.70;1.00
314;DHT22;143;51.634;7.112;2022-10-29T09:46:40;19.70;1.00
314;DHT22;143;51.634;7.112;2022-10-29T09:52:01;19.80;1.00
314;DHT22;143;51.634;7.112;2022-10-29T09:54:29;19.80;1.00
314;DHT22;143;51.634;7.112;2022-10-29T09:56:56;19.90;1.00
314;DHT22;143;51.634;7.112;2022-10-29T09:59:43;19.90;1.00
314;DHT22;143;51.634;7.112;2022-10-29T10:02:44;20.00;1.00
314;DHT22;143;51.634;7.112;2022-10-29T10:07:39;20.30;1.00
314;DHT22;143;51.634;7.112;2022-10-29T10:10:07;20.50;1.00
314;DHT22;143;51.634;7.112;2022-10-29T10:12:46;20.70;1.00
314;DHT22;143;51.634;7.112;2022-10-29T10:17:57;21.20;1.00
314;DHT22;143;51.634;7.112;2022-10-29T10:20:28;21.50;1.00
314;DHT22;143;51.634;7.112;2022-10-29T10:22:54;21.80;99.90
314;DHT22;143;51.634;7.112;2022-10-29T10:25:32;22.10;99.90
314;DHT22;143;51.634;7.112;2022-10-29T10:28:24;22.40;99.90
314;DHT22;143;51.634;7.112;2022-10-29T10:31:08;22.60;99.90
314;DHT22;143;51.634;7.112;2022-10-29T10:33:36;23.00;99.90
314;DHT22;143;51.634;7.112;2022-10-29T10:36:08;23.30;99.90
314;DHT22;143;51.634;7.112;2022-10-29T10:38:43;23.50;99.90
314;DHT22;143;51.634;7.112;2022-10-29T10:41:11;23.80;99.90
314;DHT22;143;51.634;7.112;2022-10-29T10:43:41;24.30;99.90
314;DHT22;143;51.634;7.112;2022-10-29T10:46:29;24.60;93.90
314;DHT22;143;51.634;7.112;2022-10-29T10:49:11;24.80;21.70
314;DHT22;143;51.634;7.112;2022-10-29T10:51:42;24.80;1.00
314;DHT22;143;51.634;7.112;2022-10-29T10:57:23;24.50;1.00
314;DHT22;143;51.634;7.112;2022-10-29T11:00:21;24.40;1.00
314;DHT22;143;51.634;7.112;2022-10-29T11:05:49;25.40;1.00
314;DHT22;143;51.634;7.112;2022-10-29T11:08:23;26.80;1.00
314;DHT22;143;51.634;7.112;2022-10-29T11:11:27;27.20;1.00
314;DHT22;143;51.634;7.112;2022-10-29T11:13:46;27.80;1.00
314;DHT22;143;51.634;7.112;2022-10-29T11:16:37;28.00;1.00
314;DHT22;143;51.634;7.112;2022-10-29T11:19:19;27.60;1.00
314;DHT22;143;51.634;7.112;2022-10-29T11:25:04;26.80;1.00
314;DHT22;143;51.634;7.112;2022-10-29T11:30:23;27.70;1.00
314;DHT22;143;51.634;7.112;2022-10-29T11:33:12;28.10;1.00
314;DHT22;143;51.634;7.112;2022-10-29T11:43:29;28.00;1.00
314;DHT22;143;51.634;7.112;2022-10-29T11:56:57;27.50;1.00
314;DHT22;143;51.634;7.112;2022-10-29T11:59:39;27.40;1.00
314;DHT22;143;51.634;7.112;2022-10-29T12:05:11;27.20;1.00
314;DHT22;143;51.634;7.112;2022-10-29T12:08:03;27.10;1.00
314;DHT22;143;51.634;7.112;2022-10-29T12:10:32;27.00;1.00
314;DHT22;143;51.634;7.112;2022-10-29T12:15:35;27.10;1.00
314;DHT22;143;51.634;7.112;2022-10-29T12:21:30;27.50;1.00
314;DHT22;143;51.634;7.112;2022-10-29T12:27:01;27.70;1.00
314;DHT22;143;51.634;7.112;2022-10-29T12:29:45;27.70;1.00
314;DHT22;143;51.634;7.112;2022-10-29T12:34:57;27.40;1.00
314;DHT22;143;51.634;7.112;2022-10-29T12:39:57;26.80;1.00
314;DHT22;143;51.634;7.112;2022-10-29T12:42:25;26.70;1.00
314;DHT22;143;51.634;7.112;2022-10-29T12:47:50;26.50;1.00
314;DHT22;143;51.634;7.112;2022-10-29T12:53:23;26.40;1.00
314;DHT22;143;51.634;7.112;2022-10-29T12:55:53;26.40;1.00
314;DHT22;143;51.634;7.112;2022-10-29T13:01:24;26.30;1.00
314;DHT22;143;51.634;7.112;2022-10-29T13:06:46;25.90;1.00
314;DHT22;143;51.634;7.112;2022-10-29T13:09:18;25.80;1.00
314;DHT22;143;51.634;7.112;2022-10-29T13:11:55;25.70;1.00
314;DHT22;143;51.634;7.112;2022-10-29T13:14:45;25.70;1.00
314;DHT22;143;51.634;7.112;2022-10-29T13:17:36;25.60;1.00
314;DHT22;143;51.634;7.112;2022-10-29T13:20:20;25.50;1.00
314;DHT22;143;51.634;7.112;2022-10-29T13:27:53;25.40;1.00
314;DHT22;143;51.634;7.112;2022-10-29T13:30:23;25.60;1.00
314;DHT22;143;51.634;7.112;2022-10-29T13:32:53;25.60;1.00
314;DHT22;143;51.634;7.112;2022-10-29T13:42:56;25.20;1.00
314;DHT22;143;51.634;7.112;2022-10-29T13:45:24;25.20;1.00
314;DHT22;143;51.634;7.112;2022-10-29T13:47:50;25.30;1.00
314;DHT22;143;51.634;7.112;2022-10-29T13:50:17;25.30;1.00
314;DHT22;143;51.634;7.112;2022-10-29T13:52:47;25.30;1.00
314;DHT22;143;51.634;7.112;2022-10-29T13:55:16;25.30;1.00
314;DHT22;143;51.634;7.112;2022-10-29T13:58:03;25.20;1.00
314;DHT22;143;51.634;7.112;2022-10-29T14:00:32;25.30;1.00
314;DHT22;143;51.634;7.112;2022-10-29T14:03:26;25.30;1.00
314;DHT22;143;51.634;7.112;2022-10-29T14:05:57;25.30;1.00
314;DHT22;143;51.634;7.112;2022-10-29T14:08:39;25.20;1.00
314;DHT22;143;51.634;7.112;2022-10-29T14:11:13;25.20;1.00
314;DHT22;143;51.634;7.112;2022-10-29T14:13:53;25.20;1.00
314;DHT22;143;51.634;7.112;2022-10-29T14:16:30;25.20;1.00
314;DHT22;143;51.634;7.112;2022-10-29T14:19:19;25.10;1.00
314;DHT22;143;51.634;7.112;2022-10-29T14:21:46;25.00;1.00
314;DHT22;143;51.634;7.112;2022-10-29T14:24:14;24.90;1.00
314;DHT22;143;51.634;7.112;2022-10-29T14:26:42;24.90;1.00
314;DHT22;143;51.634;7.112;2022-10-29T14:29:21;24.90;1.00
314;DHT22;143;51.634;7.112;2022-10-29T14:32:07;24.90;1.00
314;DHT22;143;51.634;7.112;2022-10-29T14:34:35;24.90;1.00
314;DHT22;143;51.634;7.112;2022-10-29T14:37:10;24.90;1.00
314;DHT22;143;51.634;7.112;2022-10-29T14:39:47;24.90;1.00
314;DHT22;143;51.634;7.112;2022-10-29T14:42:32;25.00;1.00
314;DHT22;143;51.634;7.112;2022-10-29T14:45:02;24.90;1.00
314;DHT22;143;51.634;7.112;2022-10-29T14:47:38;24.80;1.00
314;DHT22;143;51.634;7.112;2022-10-29T14:50:14;24.80;1.00
314;DHT22;143;51.634;7.112;2022-10-29T14:52:44;24.70;1.00
314;DHT22;143;51.634;7.112;2022-10-29T14:55:24;24.60;1.00
314;DHT22;143;51.634;7.112;2022-10-29T14:58:04;24.60;1.00
314;DHT22;143;51.634;7.112;2022-10-29T15:00:34;24.50;1.00
314;DHT22;143;51.634;7.112;2022-10-29T15:03:02;24.40;1.00
314;DHT22;143;51.634;7.112;2022-10-29T15:05:30;24.30;1.00
314;DHT22;143;51.634;7.112;2022-10-29T15:10:52;24.20;1.00
314;DHT22;143;51.634;7.112;2022-10-29T15:18:26;24.10;1.00
314;DHT22;143;51.634;7.112;2022-10-29T15:20:55;24.10;1.00
314;DHT22;143;51.634;7.112;2022-10-29T15:23:26;24.10;1.00
314;DHT22;143;51.634;7.112;2022-10-29T15:26:04;24.10;1.00
314;DHT22;143;51.634;7.112;2022-10-29T15:28:37;24.00;1.00
314;DHT22;143;51.634;7.112;2022-10-29T15:31:04;23.90;1.00
314;DHT22;143;51.634;7.112;2022-10-29T15:33:31;23.80;1.00
314;DHT22;143;51.634;7.112;2022-10-29T15:35:57;23.80;1.00
314;DHT22;143;51.634;7.112;2022-10-29T15:43:46;23.40;1.00
314;DHT22;143;51.634;7.112;2022-10-29T15:48:45;23.20;1.00
314;DHT22;143;51.634;7.112;2022-10-29T15:51:11;23.10;1.00
314;DHT22;143;51.634;7.112;2022-10-29T15:53:37;23.00;1.00
314;DHT22;143;51.634;7.112;2022-10-29T15:56:02;23.00;1.00
314;DHT22;143;51.634;7.112;2022-10-29T15:58:28;22.90;1.00
314;DHT22;143;51.634;7.112;2022-10-29T16:00:54;22.90;1.00
314;DHT22;143;51.634;7.112;2022-10-29T16:03:25;22.80;1.00
314;DHT22;143;51.634;7.112;2022-10-29T16:05:59;22.80;1.00
314;DHT22;143;51.634;7.112;2022-10-29T16:08:29;22.70;1.00
314;DHT22;143;51.634;7.112;2022-10-29T16:10:56;22.60;1.00
314;DHT22;143;51.634;7.112;2022-10-29T16:13:23;22.50;1.00
314;DHT22;143;51.634;7.112;2022-10-29T16:15:50;22.40;1.00
314;DHT22;143;51.634;7.112;2022-10-29T16:18:16;22.40;1.00
314;DHT22;143;51.634;7.112;2022-10-29T16:20:42;22.30;1.00
314;DHT22;143;51.634;7.112;2022-10-29T16:23:11;22.20;1.00
314;DHT22;143;51.634;7.112;2022-10-29T16:25:38;22.20;1.00
314;DHT22;143;51.634;7.112;2022-10-29T16:28:04;22.10;1.00
314;DHT22;143;51.634;7.112;2022-10-29T16:30:30;22.00;1.00
314;DHT22;143;51.634;7.112;2022-10-29T16:32:56;22.00;1.00
314;DHT22;143;51.634;7.112;2022-10-29T16:35:24;21.80;1.00
314;DHT22;143;51.634;7.112;2022-10-29T16:37:51;21.80;1.00
314;DHT22;143;51.634;7.112;2022-10-29T16:40:18;21.70;1.00
314;DHT22;143;51.634;7.112;2022-10-29T16:42:44;21.70;1.00
314;DHT22;143;51.634;7.112;2022-10-29T16:45:14;21.70;1.00
314;DHT22;143;51.634;7.112;2022-10-29T16:47:40;21.60;1.00
314;DHT22;143;51.634;7.112;2022-10-29T16:50:06;21.60;1.00
314;DHT22;143;51.634;7.112;2022-10-29T16:52:32;21.60;1.00
314;DHT22;143;51.634;7.112;2022-10-29T16:54:57;21.60;1.00
314;DHT22;143;51.634;7.112;2022-10-29T16:57:23;21.50;1.00
314;DHT22;143;51.634;7.112;2022-10-29T16:59:49;21.50;1.00
314;DHT22;143;51.634;7.112;2022-10-29T17:02:15;21.50;1.00
314;DHT22;143;51.634;7.112;2022-10-29T17:04:40;21.50;1.00
314;DHT22;143;51.634;7.112;2022-10-29T17:07:06;21.40;1.00
314;DHT22;143;51.634;7.112;2022-10-29T17:09:32;21.40;1.00
314;DHT22;143;51.634;7.112;2022-10-29T17:12:01;21.40;1.00
314;DHT22;143;51.634;7.112;2022-10-29T17:14:26;21.40;1.00
314;DHT22;143;51.634;7.112;2022-10-29T17:16:52;21.30;1.00
314;DHT22;143;51.634;7.112;2022-10-29T17:19:18;21.30;1.00
314;DHT22;143;51.634;7.112;2022-10-29T17:21:43;21.20;1.00
314;DHT22;143;51.634;7.112;2022-10-29T17:24:09;21.20;1.00
314;DHT22;143;51.634;7.112;2022-10-29T17:26:35;21.10;1.00
314;DHT22;143;51.634;7.112;2022-10-29T17:29:00;21.00;1.00
314;DHT22;143;51.634;7.112;2022-10-29T17:31:26;20.90;1.00
314;DHT22;143;51.634;7.112;2022-10-29T17:33:52;20.90;1.00
314;DHT22;143;51.634;7.112;2022-10-29T17:36:17;20.90;1.00
314;DHT22;143;51.634;7.112;2022-10-29T17:38:44;20.90;1.00
314;DHT22;143;51.634;7.112;2022-10-29T17:41:10;20.80;1.00
314;DHT22;143;51.634;7.112;2022-10-29T17:43:35;20.80;1.00
314;DHT22;143;51.634;7.112;2022-10-29T17:46:02;20.80;1.00
314;DHT22;143;51.634;7.112;2022-10-29T17:48:27;20.80;1.00
314;DHT22;143;51.634;7.112;2022-10-29T17:50:57;20.80;1.00
314;DHT22;143;51.634;7.112;2022-10-29T17:53:24;20.80;1.00
314;DHT22;143;51.634;7.112;2022-10-29T17:55:50;20.70;1.00
314;DHT22;143;51.634;7.112;2022-10-29T17:58:17;20.70;1.00
314;DHT22;143;51.634;7.112;2022-10-29T18:00:43;20.70;1.00
314;DHT22;143;51.634;7.112;2022-10-29T18:03:09;20.60;1.00
314;DHT22;143;51.634;7.112;2022-10-29T18:05:35;20.70;1.00
314;DHT22;143;51.634;7.112;2022-10-29T18:08:00;20.70;1.00
314;DHT22;143;51.634;7.112;2022-10-29T18:10:26;20.60;1.00
314;DHT22;143;51.634;7.112;2022-10-29T18:12:52;20.60;1.00
314;DHT22;143;51.634;7.112;2022-10-29T18:15:17;20.70;1.00
314;DHT22;143;51.634;7.112;2022-10-29T18:17:43;20.60;1.00
314;DHT22;143;51.634;7.112;2022-10-29T18:20:09;20.60;1.00
314;DHT22;143;51.634;7.112;2022-10-29T18:22:35;20.60;1.00
314;DHT22;143;51.634;7.112;2022-10-29T18:25:00;20.50;1.00
314;DHT22;143;51.634;7.112;2022-10-29T18:27:26;20.50;1.00
314;DHT22;143;51.634;7.112;2022-10-29T18:29:52;20.50;1.00
314;DHT22;143;51.634;7.112;2022-10-29T18:32:18;20.50;1.00
314;DHT22;143;51.634;7.112;2022-10-29T18:34:44;20.50;1.00
314;DHT22;143;51.634;7.112;2022-10-29T18:37:10;20.50;1.00
314;DHT22;143;51.634;7.112;2022-10-29T18:39:36;20.40;1.00
314;DHT22;143;51.634;7.112;2022-10-29T18:42:02;20.40;1.00
314;DHT22;143;51.634;7.112;2022-10-29T18:44:28;20.40;1.00
314;DHT22;143;51.634;7.112;2022-10-29T18:46:54;20.30;1.00
314;DHT22;143;51.634;7.112;2022-10-29T18:49:20;20.30;1.00
314;DHT22;143;51.634;7.112;2022-10-29T18:51:46;20.30;1.00
314;DHT22;143;51.634;7.112;2022-10-29T18:54:12;20.30;1.00
314;DHT22;143;51.634;7.112;2022-10-29T18:56:38;20.30;1.00
314;DHT22;143;51.634;7.112;2022-10-29T18:59:04;20.20;1.00
314;DHT22;143;51.634;7.112;2022-10-29T19:01:32;20.20;1.00
314;DHT22;143;51.634;7.112;2022-10-29T19:04:00;20.10;1.00
314;DHT22;143;51.634;7.112;2022-10-29T19:06:28;20.20;1.00
314;DHT22;143;51.634;7.112;2022-10-29T19:08:55;20.10;1.00
314;DHT22;143;51.634;7.112;2022-10-29T19:11:24;20.10;1.00
314;DHT22;143;51.634;7.112;2022-10-29T19:14:01;20.10;1.00
314;DHT22;143;51.634;7.112;2022-10-29T19:16:29;20.10;1.00
314;DHT22;143;51.634;7.112;2022-10-29T19:18:56;20.00;1.00
314;DHT22;143;51.634;7.112;2022-10-29T19:21:23;20.00;1.00
314;DHT22;143;51.634;7.112;2022-10-29T19:23:53;20.00;1.00
314;DHT22;143;51.634;7.112;2022-10-29T19:26:20;19.90;1.00
314;DHT22;143;51.634;7.112;2022-10-29T19:28:46;19.90;1.00
314;DHT22;143;51.634;7.112;2022-10-29T19:31:18;19.90;1.00
314;DHT22;143;51.634;7.112;2022-10-29T19:33:52;19.80;1.00
314;DHT22;143;51.634;7.112;2022-10-29T19:36:19;19.80;1.00